createdAt,value
2023-08-14T12:10:25.998Z,45.14
2023-08-14T12:12:55.887Z,44.99
2023-08-14T12:15:25.053Z,44.94
2023-08-14T12:17:52.803Z,45.08
2023-08-14T12:20:22.460Z,45.11
2023-08-14T12:22:55.354Z,44.99
2023-08-14T12:25:29.533Z,45.38
2023-08-14T12:27:56.528Z,45.41
2023-08-14T12:30:23.523Z,45.46
2023-08-14T12:32:50.879Z,45.85
2023-08-14T12:35:17.902Z,46.27
2023-08-14T12:37:44.795Z,46.15
2023-08-14T12:40:12.303Z,45.90
2023-08-14T12:42:41.029Z,45.54
2023-08-14T12:45:08.755Z,46.01
2023-08-14T12:47:35.785Z,46.45
2023-08-14T12:50:02.857Z,46.80
2023-08-14T12:52:30.696Z,46.96
2023-08-14T12:57:28.851Z,46.61
2023-08-14T12:59:57.523Z,46.77
2023-08-14T13:04:54.911Z,47.10
2023-08-14T13:07:23.955Z,46.57
2023-08-14T13:09:51.927Z,46.29
2023-08-14T13:12:18.932Z,46.47
2023-08-14T13:14:46.661Z,46.89
2023-08-14T13:17:17.230Z,46.43
2023-08-14T13:19:44.848Z,46.40
2023-08-14T13:22:12.410Z,46.74
2023-08-14T13:24:39.398Z,47.18
2023-08-14T13:27:09.629Z,47.14
2023-08-14T13:29:43.807Z,47.11
2023-08-14T13:32:11.393Z,47.21
2023-08-14T13:34:39.714Z,47.56
2023-08-14T13:37:07.112Z,47.85
2023-08-14T13:39:34.565Z,47.60
2023-08-14T13:42:02.142Z,47.25
2023-08-14T13:44:29.504Z,46.80
2023-08-14T13:46:56.855Z,46.85
2023-08-14T13:49:24.174Z,46.76
2023-08-14T13:51:52.893Z,46.54
2023-08-14T13:54:19.949Z,46.73
2023-08-14T13:56:47.073Z,46.86
2023-08-14T13:59:14.012Z,46.79
2023-08-14T14:01:40.926Z,46.62
2023-08-14T14:04:08.833Z,46.81
2023-08-14T14:06:35.820Z,46.79
2023-08-14T14:09:07.373Z,46.68
2023-08-14T14:11:34.597Z,46.35
2023-08-14T14:14:01.663Z,46.25
2023-08-14T14:16:52.412Z,46.55
2023-08-14T14:19:19.882Z,46.74
2023-08-14T14:21:47.444Z,46.71
2023-08-14T14:24:16.024Z,46.68
2023-08-14T14:26:43.196Z,46.28
2023-08-14T14:29:10.389Z,46.65
2023-08-14T14:31:37.651Z,46.98
2023-08-14T14:34:06.669Z,47.15
2023-08-14T14:36:34.695Z,47.32
2023-08-14T14:39:02.351Z,47.24
2023-08-14T14:41:31.815Z,46.51
2023-08-14T14:43:58.935Z,46.46
2023-08-14T14:46:25.947Z,46.38
2023-08-14T14:48:53.284Z,46.20
2023-08-14T14:51:20.526Z,45.95
2023-08-14T14:53:47.695Z,45.64
2023-08-14T14:56:15.997Z,45.59
2023-08-14T14:58:44.487Z,45.84
2023-08-14T15:01:11.457Z,45.80
2023-08-14T15:03:38.501Z,46.03
2023-08-14T15:06:05.870Z,46.13
2023-08-14T15:08:33.017Z,45.58
2023-08-14T15:11:00.511Z,45.00
2023-08-14T15:13:27.873Z,44.31
2023-08-14T15:15:56.614Z,43.77
2023-08-14T15:18:23.740Z,43.26
2023-08-14T15:20:50.996Z,42.73
2023-08-14T15:23:18.279Z,42.42
2023-08-14T15:25:46.116Z,42.04
2023-08-14T15:28:14.108Z,41.50
2023-08-14T15:30:42.874Z,40.83
2023-08-14T15:33:13.794Z,40.47
2023-08-14T15:35:40.940Z,40.31
2023-08-14T15:38:08.353Z,40.29
2023-08-14T15:40:36.015Z,40.17
2023-08-14T15:43:03.786Z,40.02
2023-08-14T15:45:30.810Z,39.86
2023-08-14T15:47:57.841Z,39.71
2023-08-14T15:50:26.274Z,39.56
2023-08-14T15:52:53.539Z,39.26
2023-08-14T15:55:20.606Z,38.93
2023-08-14T15:57:48.013Z,38.81
2023-08-14T16:00:15.831Z,38.51
2023-08-14T16:02:42.928Z,38.35
2023-08-14T16:05:10.746Z,38.31
2023-08-14T16:07:39.546Z,38.16
2023-08-14T16:10:07.511Z,37.98
2023-08-14T16:12:34.750Z,37.83
2023-08-14T16:15:01.842Z,37.76
2023-08-14T16:17:29.297Z,37.66
2023-08-14T16:19:56.933Z,37.64
2023-08-14T16:22:24.152Z,37.58
2023-08-14T16:24:53.112Z,37.63
2023-08-14T16:27:20.399Z,37.66
2023-08-14T16:29:48.030Z,37.39
2023-08-14T16:32:15.811Z,37.14
2023-08-14T16:34:42.941Z,36.99
2023-08-14T16:37:10.432Z,36.93
2023-08-14T16:39:37.468Z,36.78
2023-08-14T16:42:06.514Z,36.66
2023-08-14T16:44:34.103Z,36.56
2023-08-14T16:47:03.173Z,36.27
2023-08-14T16:49:30.454Z,36.09
2023-08-14T16:51:57.458Z,35.89
2023-08-14T16:54:24.664Z,35.63
2023-08-14T16:56:52.340Z,35.29
2023-08-14T16:59:21.592Z,34.98
2023-08-14T17:01:48.844Z,34.86
2023-08-14T17:04:16.574Z,34.66
2023-08-14T17:06:44.354Z,34.50
2023-08-14T17:09:12.006Z,34.43
2023-08-14T17:11:39.228Z,34.21
2023-08-14T17:14:06.993Z,34.08
2023-08-14T17:16:36.780Z,33.84
2023-08-14T17:19:04.814Z,33.55
2023-08-14T17:21:32.510Z,33.28
2023-08-14T17:23:59.618Z,33.04
2023-08-14T17:26:27.280Z,32.77
2023-08-14T17:28:55.031Z,32.35
2023-08-14T17:31:22.665Z,31.99
2023-08-14T17:33:54.629Z,31.67
2023-08-14T17:36:23.163Z,31.47
2023-08-14T17:38:50.331Z,31.30
2023-08-14T17:41:17.474Z,31.19
2023-08-14T17:43:45.194Z,31.04
2023-08-14T17:46:12.864Z,30.81
2023-08-14T17:48:42.793Z,30.63
2023-08-14T17:51:14.149Z,30.45
2023-08-14T17:53:41.990Z,30.29
2023-08-14T17:56:09.896Z,30.11
2023-08-14T17:58:37.728Z,29.99
2023-08-14T18:01:05.528Z,29.83
2023-08-14T18:03:32.777Z,29.66
2023-08-14T18:06:01.864Z,29.49
2023-08-14T18:08:32.045Z,29.34
2023-08-14T18:11:02.335Z,29.18
2023-08-14T18:13:30.891Z,29.00
2023-08-14T18:16:00.586Z,28.92
2023-08-14T18:18:28.744Z,28.82
2023-08-14T18:20:56.764Z,28.74
2023-08-14T18:23:25.104Z,28.61
2023-08-14T18:25:57.330Z,28.45
2023-08-14T18:28:27.721Z,28.28
2023-08-14T18:30:55.698Z,28.21
2023-08-14T18:33:23.357Z,28.14
2023-08-14T18:35:50.817Z,27.99
2023-08-14T18:38:18.543Z,27.89
2023-08-14T18:40:47.151Z,27.83
2023-08-14T18:43:18.280Z,27.75
2023-08-14T18:45:47.984Z,27.65
2023-08-14T18:48:17.924Z,27.55
